Time;durP1;ratioP1;P1;durP2;ratioP2;P2;SDS_P1;SDS_P2;PMS_P1;PMS_P2;Temp;Humidity;BMP_temperature;BMP_pressure;BME280_temperature;BME280_humidity;BME280_pressure;Samples;Min_cycle;Max_cycle;Signal;HPM_P1;HPM_P2
2022/11/14 00:00:48;;;;;;;26.17;24.17;;;;;;;1.48;100.00;101535.34;5207772;28;20021;-69
2022/11/14 00:03:19;;;;;;;22.95;21.25;;;;;;;1.53;100.00;101524.16;5207844;28;20485;-69
2022/11/14 00:05:49;;;;;;;22.58;20.63;;;;;;;1.41;100.00;101491.84;5207746;28;20032;-67
2022/11/14 00:08:24;;;;;;;26.83;24.55;;;;;;;1.65;100.00;101510.25;5207491;28;20059;-69
2022/11/14 00:10:54;;;;;;;23.83;21.85;;;;;;;1.59;100.00;101510.97;5207526;28;20142;-69
2022/11/14 00:13:25;;;;;;;27.42;25.10;;;;;;;1.47;100.00;101503.59;5207591;28;20029;-69
2022/11/14 00:15:55;;;;;;;22.17;20.52;;;;;;;1.56;100.00;101511.31;5207846;28;20029;-71
2022/11/14 00:18:26;;;;;;;23.63;21.75;;;;;;;1.68;100.00;101503.72;5207992;28;20025;-69
2022/11/14 00:20:56;;;;;;;25.40;23.00;;;;;;;1.74;100.00;101510.13;5207921;28;20144;-67
2022/11/14 00:23:27;;;;;;;25.27;23.23;;;;;;;1.60;100.00;101507.28;5207590;28;20083;-68
2022/11/14 00:25:57;;;;;;;25.45;23.23;;;;;;;1.54;100.00;101512.50;5207908;28;20029;-69
2022/11/14 00:28:27;;;;;;;23.40;21.42;;;;;;;1.52;100.00;101506.53;5225449;28;20107;-70
2022/11/14 00:30:58;;;;;;;23.02;20.67;;;;;;;1.51;100.00;101507.53;5207703;28;20033;-69
2022/11/14 00:33:28;;;;;;;22.70;20.67;;;;;;;1.48;100.00;101497.25;5206832;28;20400;-69
2022/11/14 00:35:59;;;;;;;21.50;19.70;;;;;;;1.66;100.00;101500.44;5207615;28;20025;-69
2022/11/14 00:38:29;;;;;;;22.33;20.63;;;;;;;1.66;100.00;101501.25;5207677;28;20032;-67
2022/11/14 00:41:00;;;;;;;22.08;20.27;;;;;;;1.58;100.00;101492.50;5206762;28;20508;-69
2022/11/14 00:43:30;;;;;;;22.52;20.48;;;;;;;1.54;100.00;101496.53;5207410;28;20111;-69
2022/11/14 00:46:01;;;;;;;23.70;21.83;;;;;;;1.52;100.00;101493.22;5207542;28;20021;-70
2022/11/14 00:48:31;;;;;;;23.38;21.55;;;;;;;1.33;100.00;101463.47;5207481;28;20389;-70
2022/11/14 00:51:02;;;;;;;21.05;19.20;;;;;;;1.42;100.00;101492.69;5207669;28;20090;-69
2022/11/14 00:53:32;;;;;;;20.27;18.80;;;;;;;1.38;100.00;101483.41;5223660;28;20024;-66
2022/11/14 00:56:03;;;;;;;22.08;20.58;;;;;;;1.34;100.00;101483.75;5207665;28;20076;-69
2022/11/14 00:58:33;;;;;;;24.52;22.60;;;;;;;1.27;100.00;101480.16;5207158;28;20405;-69
2022/11/14 01:01:04;;;;;;;24.38;22.30;;;;;;;1.23;100.00;101476.19;5207552;28;20119;-70
2022/11/14 01:03:34;;;;;;;22.15;20.33;;;;;;;1.21;100.00;101477.38;5207282;28;20059;-71
2022/11/14 01:06:07;;;;;;;23.50;21.60;;;;;;;1.13;100.00;101472.97;5207503;28;20024;-68
2022/11/14 01:08:38;;;;;;;23.63;21.77;;;;;;;1.07;100.00;101467.53;5209701;28;20107;-69
2022/11/14 01:11:12;;;;;;;23.00;21.25;;;;;;;0.91;100.00;101463.16;5210916;28;20111;-66
2022/11/14 01:13:43;;;;;;;21.42;19.75;;;;;;;0.95;100.00;101459.97;5210477;28;20033;-69
2022/11/14 01:16:13;;;;;;;23.33;21.15;;;;;;;0.81;100.00;101436.00;5211145;28;20075;-67
2022/11/14 01:18:44;;;;;;;21.45;19.77;;;;;;;0.92;100.00;101455.00;5210952;28;20029;-69
2022/11/14 01:21:15;;;;;;;22.45;20.77;;;;;;;0.90;100.00;101453.53;5211174;28;20404;-69
2022/11/14 01:23:45;;;;;;;23.20;21.02;;;;;;;0.89;100.00;101451.88;5209876;28;20039;-69
2022/11/14 01:26:15;;;;;;;22.45;20.45;;;;;;;0.64;100.00;101404.22;5225472;22;20032;-80
2022/11/14 01:28:46;;;;;;;22.67;20.90;;;;;;;0.84;100.00;101454.25;5219970;28;20128;-81
2022/11/14 01:31:20;;;;;;;22.70;21.02;;;;;;;0.94;100.00;101446.84;5238165;28;20031;-81
2022/11/14 01:33:52;;;;;;;23.27;20.95;;;;;;;1.03;100.00;101443.13;5236527;28;20027;-81
2022/11/14 01:36:22;;;;;;;23.92;21.67;;;;;;;0.41;100.00;101347.59;5238521;28;20025;-82
2022/11/14 01:38:53;;;;;;;24.10;22.08;;;;;;;0.74;100.00;101417.28;5237587;28;20036;-81
2022/11/14 01:41:24;;;;;;;25.98;23.40;;;;;;;0.99;100.00;101437.34;5238060;28;20081;-80
2022/11/14 01:43:54;;;;;;;24.77;22.52;;;;;;;0.55;100.00;101349.50;5237515;28;20021;-81
2022/11/14 01:46:37;;;;;;;23.63;21.85;;;;;;;1.15;100.00;101428.41;5237726;28;20052;-81
2022/11/14 01:49:10;;;;;;;23.15;21.55;;;;;;;1.20;100.00;101428.66;5237765;28;20029;-84
2022/11/14 01:51:45;;;;;;;22.52;20.70;;;;;;;1.17;100.00;101439.66;5237378;28;20115;-81
2022/11/14 01:54:24;;;;;;;24.95;23.05;;;;;;;1.19;100.00;101412.88;5237304;28;20020;-81
2022/11/14 01:56:58;;;;;;;22.95;21.38;;;;;;;0.85;100.00;101341.59;5237601;28;20525;-80
2022/11/14 01:59:37;;;;;;;22.83;20.73;;;;;;;1.29;100.00;101410.81;5236395;28;20047;-80
2022/11/14 02:02:23;;;;;;;25.08;23.17;;;;;;;0.77;100.00;101333.69;5237618;28;20033;-80
2022/11/14 02:05:07;;;;;;;23.73;21.88;;;;;;;1.30;100.00;101425.75;5237221;28;20031;-81
2022/11/14 02:07:39;;;;;;;26.33;24.17;;;;;;;1.17;100.00;101422.88;5219544;28;20682;-81
2022/11/14 02:10:16;;;;;;;23.98;22.10;;;;;;;1.09;100.00;101413.16;5236398;28;20088;-81
2022/11/14 02:12:49;;;;;;;22.90;20.98;;;;;;;0.97;100.00;101409.28;5236333;28;20098;-81
2022/11/14 02:15:20;;;;;;;23.73;21.30;;;;;;;0.98;100.00;101418.91;5236545;28;20029;-82
2022/11/14 02:17:50;;;;;;;22.35;20.55;;;;;;;0.92;100.00;101412.47;5237040;28;20025;-81
2022/11/14 02:20:28;;;;;;;22.15;20.25;;;;;;;0.30;100.00;101316.13;5237123;28;20029;-80
2022/11/14 02:22:58;;;;;;;23.77;21.85;;;;;;;0.94;100.00;101414.94;5240579;28;20113;-81
2022/11/14 02:25:29;;;;;;;24.20;22.23;;;;;;;0.59;100.00;101363.22;5240280;28;20025;-84
2022/11/14 02:28:01;;;;;;;24.23;21.92;;;;;;;0.52;100.00;101317.13;5238794;28;20037;-82
2022/11/14 02:30:31;;;;;;;25.05;22.92;;;;;;;1.04;100.00;101372.16;5239541;28;20142;-81
2022/11/14 02:33:02;;;;;;;24.70;22.35;;;;;;;1.25;100.00;101394.38;5240314;28;20051;-80
2022/11/14 02:35:32;;;;;;;23.00;21.20;;;;;;;0.73;100.00;101303.16;5239552;28;20060;-82
2022/11/14 02:38:03;;;;;;;24.65;22.73;;;;;;;1.17;100.00;101380.31;5239679;28;20104;-80
2022/11/14 02:40:33;;;;;;;24.15;22.30;;;;;;;0.85;100.00;101358.38;5238950;28;20040;-81
2022/11/14 02:43:04;;;;;;;24.60;22.55;;;;;;;0.52;100.00;101307.34;5239978;28;20025;-81
2022/11/14 02:45:34;;;;;;;25.10;22.88;;;;;;;0.83;100.00;101357.72;5238857;28;20073;-79
2022/11/14 02:48:05;;;;;;;22.38;20.48;;;;;;;0.96;100.00;101375.72;5221981;28;20016;-83
2022/11/14 02:50:35;;;;;;;21.73;20.02;;;;;;;0.88;100.00;101359.81;5243862;28;20021;-81
2022/11/14 02:53:06;;;;;;;22.05;20.40;;;;;;;0.69;100.00;101326.59;5243320;28;20023;-81
2022/11/14 02:55:36;;;;;;;22.98;21.17;;;;;;;0.81;100.00;101364.22;5240031;28;20100;-81
2022/11/14 02:58:07;;;;;;;21.20;19.27;;;;;;;0.73;100.00;101353.66;5221916;28;20036;-81
2022/11/14 03:00:37;;;;;;;20.15;18.50;;;;;;;0.87;100.00;101358.16;5239226;28;20025;-80
2022/11/14 03:03:07;;;;;;;26.25;23.58;;;;;;;1.02;100.00;101375.00;5239049;28;20024;-82
2022/11/14 03:05:38;;;;;;;24.15;21.77;;;;;;;0.97;100.00;101370.22;5223962;28;20029;-82
2022/11/14 03:08:08;;;;;;;22.55;20.77;;;;;;;0.28;100.00;101275.66;5200377;28;20056;-81
2022/11/14 03:10:38;;;;;;;21.73;20.02;;;;;;;0.81;100.00;101356.25;5218681;28;20033;-81
2022/11/14 03:13:09;;;;;;;22.95;21.20;;;;;;;0.44;100.00;101291.47;5217256;28;20213;-83
2022/11/14 03:15:39;;;;;;;21.27;19.67;;;;;;;0.92;100.00;101363.78;5283313;22;20044;-62
2022/11/14 03:18:10;;;;;;;23.73;21.58;;;;;;;0.87;100.00;101358.16;5226612;28;20021;-62
2022/11/14 03:20:41;;;;;;;23.40;20.95;;;;;;;0.82;100.00;101365.88;5229670;28;20039;-64
2022/11/14 03:23:11;;;;;;;22.90;20.92;;;;;;;0.79;100.00;101369.72;5247518;28;20032;-62
2022/11/14 03:25:41;;;;;;;20.25;18.35;;;;;;;0.73;100.00;101364.28;5229401;28;20024;-63
2022/11/14 03:28:12;;;;;;;23.60;21.60;;;;;;;0.67;100.00;101366.66;5230205;28;20017;-63
2022/11/14 03:30:43;;;;;;;23.75;21.90;;;;;;;0.61;100.00;101354.06;5246854;28;20034;-67
2022/11/14 03:33:13;;;;;;;22.92;21.17;;;;;;;0.67;100.00;101361.34;5228832;28;20052;-66
2022/11/14 03:35:44;;;;;;;24.23;22.10;;;;;;;0.60;100.00;101364.88;5229354;28;20031;-63
2022/11/14 03:38:14;;;;;;;23.50;21.45;;;;;;;0.52;100.00;101365.78;5229242;28;20016;-62
2022/11/14 03:40:44;;;;;;;21.63;20.10;;;;;;;0.49;100.00;101368.81;5229046;28;20031;-62
2022/11/14 03:43:16;;;;;;;20.85;19.13;;;;;;;0.35;100.00;101361.59;5229427;28;20111;-64
2022/11/14 03:45:47;;;;;;;21.73;20.25;;;;;;;0.46;100.00;101366.50;5246717;28;20024;-63
2022/11/14 03:48:17;;;;;;;23.98;21.92;;;;;;;0.50;100.00;101365.16;5227876;28;20102;-62
2022/11/14 03:50:48;;;;;;;23.42;21.40;;;;;;;0.59;100.00;101356.09;5229057;28;20107;-66
2022/11/14 03:53:19;;;;;;;25.13;23.05;;;;;;;0.72;100.00;101355.50;5229279;28;20445;-64
2022/11/14 03:55:50;;;;;;;22.63;20.63;;;;;;;0.77;100.00;101349.63;5227896;28;20051;-63
2022/11/14 03:58:21;;;;;;;23.92;21.92;;;;;;;0.69;100.00;101345.22;5229102;28;20025;-64
2022/11/14 04:00:54;;;;;;;24.98;22.30;;;;;;;0.66;100.00;101338.41;5228831;28;20039;-62
2022/11/14 04:03:25;;;;;;;23.10;21.00;;;;;;;0.56;100.00;101318.44;5228787;28;20036;-65
2022/11/14 04:05:55;;;;;;;22.40;20.60;;;;;;;0.73;100.00;101340.38;5228998;28;20024;-63
2022/11/14 04:08:26;;;;;;;25.05;23.15;;;;;;;0.65;100.00;101330.63;5229007;28;20362;-61
2022/11/14 04:10:56;;;;;;;23.77;21.45;;;;;;;0.62;100.00;101334.47;5229464;28;20099;-61
2022/11/14 04:13:27;;;;;;;23.75;21.83;;;;;;;0.48;100.00;101332.59;5228542;28;20032;-62
2022/11/14 04:15:57;;;;;;;24.67;22.50;;;;;;;0.43;100.00;101331.47;5228568;28;20412;-66
2022/11/14 04:18:28;;;;;;;24.75;22.60;;;;;;;0.36;100.00;101323.41;5229219;28;20082;-63
2022/11/14 04:20:58;;;;;;;24.30;21.85;;;;;;;0.26;100.00;101299.75;5246061;28;20024;-63
2022/11/14 04:23:29;;;;;;;23.95;21.90;;;;;;;0.27;100.00;101308.53;5246739;28;20050;-63
2022/11/14 04:25:59;;;;;;;23.20;21.58;;;;;;;0.25;100.00;101314.03;5228938;28;20487;-62
2022/11/14 04:28:30;;;;;;;22.13;20.50;;;;;;;0.24;100.00;101316.88;5228904;28;20024;-67
2022/11/14 04:31:03;;;;;;;21.90;20.40;;;;;;;0.20;100.00;101315.56;5229195;28;20033;-64
2022/11/14 04:33:34;;;;;;;25.60;23.58;;;;;;;0.16;100.00;101319.56;5227790;28;20439;-65
2022/11/14 04:36:05;;;;;;;24.58;22.60;;;;;;;0.14;100.00;101302.97;5229002;28;20025;-64
2022/11/14 04:38:35;;;;;;;23.48;21.63;;;;;;;0.36;100.00;101326.06;5228785;28;20419;-61
2022/11/14 04:41:06;;;;;;;24.73;22.88;;;;;;;0.22;100.00;101284.34;5228441;28;20026;-63
2022/11/14 04:43:36;;;;;;;21.88;20.15;;;;;;;0.36;100.00;101310.09;5248719;28;20052;-64
2022/11/14 04:46:07;;;;;;;23.63;21.83;;;;;;;0.23;100.00;101288.66;5232789;28;20032;-66
2022/11/14 04:48:37;;;;;;;23.48;21.50;;;;;;;0.20;100.00;101308.41;5250426;28;20020;-64
2022/11/14 04:51:08;;;;;;;23.20;21.10;;;;;;;0.17;100.00;101302.63;5232693;28;20024;-64
2022/11/14 04:53:38;;;;;;;22.08;20.20;;;;;;;0.18;100.00;101296.31;5232533;28;20036;-63
2022/11/14 04:56:09;;;;;;;24.33;21.48;;;;;;;0.21;100.00;101296.78;5233058;28;20027;-62
2022/11/14 04:58:39;;;;;;;22.52;20.65;;;;;;;0.21;100.00;101290.66;5233077;28;20024;-63
2022/11/14 05:01:12;;;;;;;22.20;20.33;;;;;;;0.15;100.00;101301.97;5232946;28;20036;-66
2022/11/14 05:03:42;;;;;;;22.00;20.13;;;;;;;0.08;100.00;101290.41;5232094;28;20031;-63
2022/11/14 05:06:13;;;;;;;21.50;19.67;;;;;;;0.02;100.00;101288.44;5232964;28;20024;-62
2022/11/14 05:08:44;;;;;;;24.95;22.67;;;;;;;0.02;100.00;101277.81;5233309;28;20051;-61
2022/11/14 05:11:16;;;;;;;22.15;20.50;;;;;;;0.13;100.00;101285.41;5232867;28;20032;-63
2022/11/14 05:13:47;;;;;;;24.30;22.08;;;;;;;0.08;100.00;101271.81;5251551;28;20020;-64
2022/11/14 05:16:17;;;;;;;22.13;20.33;;;;;;;0.10;100.00;101285.75;5232868;28;20548;-63
2022/11/14 05:18:48;;;;;;;23.08;21.42;;;;;;;0.05;100.00;101282.78;5232974;28;20032;-62
2022/11/14 05:21:18;;;;;;;19.25;17.50;;;;;;;-0.11;100.00;101271.28;5232526;28;20036;-62
2022/11/14 05:23:55;;;;;;;21.02;19.40;;;;;;;-0.06;100.00;101284.03;5232895;28;20027;-62
2022/11/14 05:26:25;;;;;;;23.98;21.88;;;;;;;-0.09;100.00;101285.22;5232891;28;20032;-63
2022/11/14 05:28:56;;;;;;;22.30;20.75;;;;;;;-0.16;100.00;101278.13;5232759;28;20019;-63
2022/11/14 05:31:26;;;;;;;20.80;19.02;;;;;;;-0.13;100.00;101283.91;5232874;28;20035;-63
2022/11/14 05:33:57;;;;;;;21.33;19.63;;;;;;;-0.12;100.00;101280.25;5250636;28;20108;-61
2022/11/14 05:36:27;;;;;;;24.55;22.50;;;;;;;-0.12;100.00;101280.25;5250642;28;20063;-61
2022/11/14 05:38:57;;;;;;;24.92;22.58;;;;;;;-0.18;100.00;101286.25;5232571;28;20016;-62
2022/11/14 05:41:28;;;;;;;22.70;20.95;;;;;;;-0.30;100.00;101277.06;5232413;28;20051;-65
2022/11/14 05:43:58;;;;;;;23.80;21.80;;;;;;;-0.38;100.00;101269.16;5232310;28;20078;-64
2022/11/14 05:46:29;;;;;;;23.60;21.80;;;;;;;-0.39;100.00;101275.44;5232508;28;20036;-64
2022/11/14 05:48:59;;;;;;;24.92;22.98;;;;;;;-0.47;100.00;101275.47;5232316;28;20020;-63
2022/11/14 05:51:30;;;;;;;23.58;21.77;;;;;;;-0.45;100.00;101270.84;5231850;28;20142;-62
2022/11/14 05:54:00;;;;;;;22.33;20.40;;;;;;;-0.39;100.00;101278.94;5231356;28;20150;-63
2022/11/14 05:56:31;;;;;;;23.75;21.77;;;;;;;-0.41;100.00;101269.50;5232152;28;20035;-65
2022/11/14 05:59:01;;;;;;;22.25;20.35;;;;;;;-0.55;100.00;101264.91;5231800;28;20449;-64
2022/11/14 06:01:32;;;;;;;21.67;19.95;;;;;;;-0.63;100.00;101255.19;5250168;28;20392;-63
2022/11/14 06:04:05;;;;;;;23.75;21.40;;;;;;;-0.56;100.00;101276.50;5231880;28;20288;-63
2022/11/14 06:06:35;;;;;;;22.08;20.05;;;;;;;-0.54;100.00;101279.81;5232208;28;20020;-66
2022/11/14 06:09:06;;;;;;;21.92;20.02;;;;;;;-0.71;100.00;101253.38;5232287;28;20433;-65
2022/11/14 06:11:36;;;;;;;19.73;18.13;;;;;;;-0.57;100.00;101272.22;5236584;28;20520;-62
2022/11/14 06:14:06;;;;;;;23.40;21.48;;;;;;;-0.59;100.00;101282.19;5231800;28;20032;-63
2022/11/14 06:16:37;;;;;;;24.15;22.17;;;;;;;-0.60;100.00;101283.19;5231730;28;20043;-64
2022/11/14 06:19:08;;;;;;;22.25;20.50;;;;;;;-0.63;100.00;101284.34;5230739;28;20119;-64
2022/11/14 06:21:38;;;;;;;22.88;20.85;;;;;;;-0.62;100.00;101285.19;5231425;28;20028;-64
2022/11/14 06:24:09;;;;;;;23.70;21.60;;;;;;;-0.65;100.00;101283.69;5231372;28;20443;-64
2022/11/14 06:26:39;;;;;;;22.48;20.25;;;;;;;-0.72;100.00;101280.91;5249443;28;20028;-63
2022/11/14 06:29:10;;;;;;;23.70;21.80;;;;;;;-0.71;100.00;101285.22;5216890;28;20119;-63
2022/11/14 06:31:40;;;;;;;21.83;20.20;;;;;;;-0.75;100.00;101283.06;5210584;28;20021;-64
2022/11/14 06:34:11;;;;;;;22.25;20.30;;;;;;;-0.75;100.00;101288.38;5227944;28;20161;-64
2022/11/14 06:36:42;;;;;;;21.75;20.15;;;;;;;-0.74;100.00;101296.16;5210833;28;20079;-62
2022/11/14 06:39:12;;;;;;;21.02;19.38;;;;;;;-0.71;100.00;101289.69;5210832;28;20033;-62
2022/11/14 06:41:43;;;;;;;24.38;22.38;;;;;;;-0.70;100.00;101294.00;5210799;28;20025;-63
2022/11/14 06:44:13;;;;;;;22.65;20.65;;;;;;;-0.72;100.00;101306.59;5210481;28;20091;-62
2022/11/14 06:46:44;;;;;;;46.80;43.65;;;;;;;-0.76;100.00;101298.16;5210484;28;20078;-65
2022/11/14 06:49:14;;;;;;;31.80;29.45;;;;;;;-0.80;100.00;101275.63;5210332;28;20021;-67
2022/11/14 06:51:45;;;;;;;30.95;28.63;;;;;;;-0.62;100.00;101293.97;5215146;28;20028;-63
2022/11/14 06:54:16;;;;;;;25.45;23.45;;;;;;;-0.59;100.00;101295.47;5239202;28;20100;-63
2022/11/14 06:56:46;;;;;;;23.77;21.60;;;;;;;-0.70;100.00;101276.25;5230726;28;20021;-64
2022/11/14 06:59:17;;;;;;;26.15;23.55;;;;;;;-0.56;100.00;101301.22;5230620;28;20016;-62
2022/11/14 07:01:47;;;;;;;26.15;24.15;;;;;;;-0.75;100.00;101270.63;5230634;28;20028;-62
2022/11/14 07:04:17;;;;;;;25.23;23.13;;;;;;;-0.71;100.00;101284.38;5230532;28;20372;-64
2022/11/14 07:06:48;;;;;;;23.13;20.98;;;;;;;-0.62;100.00;101293.16;5230127;28;20492;-64
2022/11/14 07:09:18;;;;;;;23.55;21.48;;;;;;;-0.60;100.00;101285.84;5230973;28;20016;-64
2022/11/14 07:11:49;;;;;;;24.65;22.10;;;;;;;-0.60;100.00;101296.44;5248586;28;20032;-65
2022/11/14 07:14:19;;;;;;;26.63;22.50;;;;;;;-0.58;100.00;101289.97;5229838;28;20082;-64
2022/11/14 07:16:50;;;;;;;24.35;22.02;;;;;;;-0.56;100.00;101290.59;5230106;28;20189;-64
2022/11/14 07:19:20;;;;;;;24.00;22.08;;;;;;;-0.59;100.00;101284.84;5230605;28;20029;-64
2022/11/14 07:21:51;;;;;;;29.70;25.02;;;;;;;-0.55;100.00;101297.56;5224796;28;20361;-64
2022/11/14 07:24:21;;;;;;;27.05;24.45;;;;;;;-0.52;100.00;101299.03;5225245;28;20496;-65
2022/11/14 07:26:51;;;;;;;26.08;23.95;;;;;;;-0.50;100.00;101303.19;5241339;22;20029;-90
2022/11/14 07:29:22;;;;;;;23.52;21.83;;;;;;;-1.31;100.00;101191.34;5237331;28;20061;-88
2022/11/14 07:31:52;;;;;;;18.35;17.13;;;;;;;-1.29;100.00;101141.66;5248523;28;20089;-90
2022/11/14 07:34:23;;;;;;;24.95;22.55;;;;;;;-0.64;100.00;101237.63;5271944;28;20393;-89
2022/11/14 07:36:53;;;;;;;42.42;25.63;;;;;;;-1.38;100.00;101133.72;5259883;28;20023;-90
2022/11/14 07:39:24;;;;;;;24.88;22.88;;;;;;;-0.78;100.00;101187.97;5293216;28;20077;-92
2022/11/14 07:41:54;;;;;;;25.42;23.23;;;;;;;-1.05;100.00;101142.38;5275024;28;20489;-91
2022/11/14 07:44:25;;;;;;;24.38;22.45;;;;;;;-0.70;100.00;101201.19;5274414;28;20110;-89
2022/11/14 07:46:55;;;;;;;25.50;23.77;;;;;;;-1.13;100.00;101112.41;5274867;28;20020;-90
2022/11/14 07:49:26;;;;;;;27.38;24.95;;;;;;;-1.25;100.00;101089.97;5274305;28;20049;-90
2022/11/14 07:52:09;;;;;;;26.05;23.60;;;;;;;-1.62;100.00;101022.59;5294954;28;20038;-90
2022/11/14 07:54:39;;;;;;;24.65;22.35;;;;;;;-1.07;100.00;101122.34;5296505;28;20028;-90
2022/11/14 07:57:10;;;;;;;30.10;27.13;;;;;;;-0.93;100.00;101100.41;5280072;28;20080;-89
2022/11/14 07:59:40;;;;;;;27.17;24.90;;;;;;;-1.25;100.00;101055.53;5274238;28;20051;-89
2022/11/14 08:02:13;;;;;;;24.85;22.73;;;;;;;-0.74;100.00;101110.53;5273695;28;20024;-90
2022/11/14 08:04:43;;;;;;;23.17;21.27;;;;;;;0.19;100.00;101255.47;5291280;28;20152;-89
2022/11/14 08:07:13;;;;;;;24.45;22.48;;;;;;;0.14;100.00;101237.41;5291934;28;20098;-91
2022/11/14 08:09:44;;;;;;;23.40;20.98;;;;;;;0.59;100.00;101272.88;5273603;28;20023;-91
2022/11/14 08:12:14;;;;;;;26.73;22.85;;;;;;;-0.50;100.00;101095.44;5273531;28;20054;-89
2022/11/14 08:14:45;;;;;;;25.10;23.33;;;;;;;-0.54;100.00;101065.78;5273637;28;20023;-90
2022/11/14 08:17:21;;;;;;;26.67;23.73;;;;;;;0.95;100.00;101255.22;5276861;28;20439;-93
2022/11/14 08:19:52;;;;;;;22.73;20.88;;;;;;;0.07;100.00;101103.72;5279940;28;20020;-91
2022/11/14 08:22:22;;;;;;;31.98;25.80;;;;;;;0.89;100.00;101215.25;5278399;28;20027;-89
2022/11/14 08:24:52;;;;;;;25.52;23.05;;;;;;;-0.07;100.00;101105.38;5277826;28;20039;-91
2022/11/14 08:27:23;;;;;;;24.38;22.08;;;;;;;-0.24;100.00;101026.88;5296363;28;20034;-91
2022/11/14 08:29:54;;;;;;;22.02;20.48;;;;;;;0.15;100.00;101095.69;5278112;28;20112;-91
2022/11/14 08:32:24;;;;;;;23.15;21.25;;;;;;;0.87;100.00;101193.34;5277805;28;20027;-88
2022/11/14 08:34:55;;;;;;;24.35;22.33;;;;;;;0.41;100.00;101089.91;5295599;28;20485;-91
2022/11/14 08:37:25;;;;;;;22.85;21.00;;;;;;;1.02;100.00;101170.22;5296124;28;20028;-91
2022/11/14 08:39:56;;;;;;;21.25;19.52;;;;;;;0.18;100.00;101014.81;5296019;28;20023;-91
2022/11/14 08:42:27;;;;;;;18.73;17.13;;;;;;;0.79;100.00;101111.03;5278154;28;20016;-89
2022/11/14 08:44:58;;;;;;;22.88;20.92;;;;;;;1.41;100.00;101169.03;5278066;28;20416;-91
2022/11/14 08:47:28;;;;;;;21.15;19.67;;;;;;;0.85;100.00;101078.41;5277702;28;20091;-89
2022/11/14 08:49:59;;;;;;;19.58;18.13;;;;;;;0.93;100.00;101080.94;5295175;28;20090;-90
2022/11/14 08:52:29;;;;;;;23.10;20.92;;;;;;;1.06;100.00;101089.06;5277480;28;20016;-91
2022/11/14 08:55:00;;;;;;;19.15;17.55;;;;;;;1.45;100.00;101122.38;5277849;28;20083;-88
2022/11/14 08:57:30;;;;;;;20.17;18.60;;;;;;;1.18;100.00;101086.72;5298635;28;20031;-89
2022/11/14 09:00:01;;;;;;;20.92;18.92;;;;;;;1.42;100.00;101072.25;5300496;28;20065;-89
2022/11/14 09:02:31;;;;;;;22.17;19.65;;;;;;;1.84;100.00;101122.75;5301131;28;20047;-91
2022/11/14 09:05:02;;;;;;;20.23;18.63;;;;;;;1.24;100.00;101033.59;5287842;28;20083;-91
2022/11/14 09:07:32;;;;;;;18.30;16.95;;;;;;;1.99;100.00;101102.22;5316005;28;20056;-90
2022/11/14 09:10:04;;;;;;;20.05;18.55;;;;;;;2.55;100.00;101159.97;5306086;28;20027;-89
2022/11/14 09:12:34;;;;;;;19.27;17.70;;;;;;;2.98;100.00;101213.94;5281244;28;20556;-89
2022/11/14 09:15:05;;;;;;;18.90;17.30;;;;;;;2.81;100.00;101161.94;5280164;28;20120;-89
2022/11/14 09:17:35;;;;;;;19.20;17.63;;;;;;;3.19;100.00;101210.31;5278760;28;20031;-90
2022/11/14 09:20:06;;;;;;;23.35;17.73;;;;;;;2.98;100.00;101152.56;5295602;28;20027;-90
2022/11/14 09:22:37;;;;;;;17.27;15.93;;;;;;;3.37;100.00;101205.28;5277613;28;20034;-90
2022/11/14 09:25:07;;;;;;;17.85;16.48;;;;;;;2.91;100.00;101111.72;5277653;28;20031;-91
2022/11/14 09:27:38;;;;;;;19.23;17.52;;;;;;;3.41;100.00;101190.50;5278295;28;20451;-90
2022/11/14 09:30:09;;;;;;;18.40;16.63;;;;;;;3.49;100.00;101181.47;5278178;28;20111;-90
2022/11/14 09:32:39;;;;;;;19.02;17.52;;;;;;;3.42;100.00;101161.97;5277898;28;20019;-92
2022/11/14 09:35:11;;;;;;;19.83;18.33;;;;;;;3.77;100.00;101186.66;5277199;28;20026;-91
2022/11/14 09:37:42;;;;;;;17.95;16.48;;;;;;;3.91;100.00;101196.34;5276942;28;20020;-91
2022/11/14 09:40:13;;;;;;;19.77;17.88;;;;;;;3.65;100.00;101133.06;5276966;28;20106;-91
2022/11/14 09:42:59;;;;;;;18.60;17.10;;;;;;;4.21;100.00;101194.13;5295776;28;20032;-91
2022/11/14 09:45:30;;;;;;;18.52;17.02;;;;;;;4.29;100.00;101194.75;5286084;28;20028;-91
2022/11/14 09:48:08;;;;;;;20.77;18.27;;;;;;;3.12;100.00;101010.19;5276882;28;20028;-90
2022/11/14 09:51:00;;;;;;;18.42;17.08;;;;;;;4.44;100.00;101194.50;5276825;28;20023;-88
2022/11/14 09:53:36;;;;;;;19.80;18.20;;;;;;;3.01;100.00;100944.09;5294519;28;20027;-90
2022/11/14 09:56:11;;;;;;;19.70;17.88;;;;;;;4.19;100.00;101089.25;5276607;28;20025;-91
2022/11/14 09:58:42;;;;;;;18.08;16.52;;;;;;;4.29;100.00;101089.66;5276624;28;20024;-91
2022/11/14 10:01:21;;;;;;;16.60;15.45;;;;;;;4.30;100.00;101064.56;5277441;28;20397;-90
2022/11/14 10:04:06;;;;;;;17.80;16.35;;;;;;;4.90;100.00;101146.25;5294398;28;20110;-90
2022/11/14 10:07:11;;;;;;;17.13;15.82;;;;;;;5.15;100.00;101165.09;5275858;28;20091;-91
2022/11/14 10:10:17;;;;;;;16.95;15.68;;;;;;;5.08;100.00;101133.00;5284385;28;20076;-92
2022/11/14 10:13:10;;;;;;;16.52;15.30;;;;;;;5.43;100.00;101160.22;5305495;28;20028;-91
2022/11/14 10:16:23;;;;;;;16.80;15.68;;;;;;;5.16;100.00;101091.78;5296985;28;20027;-91
2022/11/14 10:19:01;;;;;;;17.95;16.52;;;;;;;5.69;100.00;101155.72;5189908;28;20026;-90
2022/11/14 10:21:44;;;;;;;17.38;16.00;;;;;;;5.88;100.00;101156.63;5271451;28;20073;-90
2022/11/14 10:24:40;;;;;;;20.52;18.52;;;;;;;5.89;100.00;101129.63;5266191;28;20081;-90
2022/11/14 10:27:36;;;;;;;19.02;17.52;;;;;;;5.77;100.00;101083.13;5274783;28;20089;-90
2022/11/14 10:30:13;;;;;;;16.73;15.20;;;;;;;6.12;100.00;101106.75;5274746;28;20016;-90
2022/11/14 10:33:14;;;;;;;16.85;15.45;;;;;;;6.46;100.00;101141.06;5257536;28;20045;-91
2022/11/14 10:35:55;;;;;;;17.45;15.40;;;;;;;6.60;100.00;101137.22;5274963;28;20047;-91
2022/11/14 10:38:42;;;;;;;16.73;15.43;;;;;;;6.47;100.00;101096.28;5257120;28;20050;-90
2022/11/14 10:41:12;;;;;;;15.70;14.60;;;;;;;6.61;100.00;101095.94;5274324;28;20020;-91
2022/11/14 10:43:46;;;;;;;16.77;15.20;;;;;;;6.89;100.00;101129.47;5281751;28;20028;-89
2022/11/14 10:46:31;;;;;;;16.77;15.35;;;;;;;6.30;100.00;101048.59;5275230;28;20028;-89
2022/11/14 10:49:01;;;;;;;16.48;15.10;;;;;;;6.07;100.00;101014.38;5273928;28;20448;-91
2022/11/14 10:51:43;;;;;;;15.63;14.43;;;;;;;6.40;100.00;101021.25;5280121;28;20004;-92
2022/11/14 10:54:27;;;;;;;15.23;13.88;;;;;;;6.18;100.00;100963.75;5277522;28;20012;-93
2022/11/14 10:56:57;;;;;;;15.18;14.18;;;;;;;6.56;100.00;101007.25;5296466;27;20012;-91
2022/11/14 10:59:28;;;;;;;14.25;13.13;;;;;;;6.59;100.00;101016.69;5296299;27;20039;-94
2022/11/14 11:01:58;;;;;;;17.23;15.82;;;;;;;6.81;100.00;101057.28;5296280;27;20024;-91
2022/11/14 11:04:33;;;;;;;15.65;14.35;;;;;;;7.61;100.00;101178.72;5285275;28;20378;-90
2022/11/14 11:07:09;;;;;;;16.42;14.90;;;;;;;7.67;100.00;101127.56;5275910;28;20077;-90
2022/11/14 11:12:53;;;;;;;14.65;13.45;;;;;;;6.81;100.00;100961.47;5275889;28;20028;-90
2022/11/14 11:15:31;;;;;;;15.88;14.50;;;;;;;7.10;100.00;100990.16;5258468;28;20490;-91
2022/11/14 11:18:05;;;;;;;15.13;13.90;;;;;;;6.48;100.00;100881.47;5277001;28;20465;-90
2022/11/14 11:20:38;;;;;;;15.05;13.73;;;;;;;6.94;100.00;100925.56;5257952;28;20024;-92
2022/11/14 11:23:08;;;;;;;16.08;14.82;;;;;;;7.95;100.00;101061.53;5258586;28;20118;-91
2022/11/14 11:25:39;;;;;;;14.65;13.35;;;;;;;7.71;100.00;101034.66;5258208;28;20470;-90
2022/11/14 11:28:15;;;;;;;13.93;12.70;;;;;;;8.29;100.00;101076.84;5257714;28;20024;-91
2022/11/14 11:30:59;;;;;;;12.45;11.20;;;;;;;8.35;100.00;101110.13;5276141;28;20031;-91
2022/11/14 11:33:33;;;;;;;14.95;13.88;;;;;;;8.46;100.00;101103.88;5259424;28;20016;-91